createdAt,value
2023-01-27T00:00:36.626Z,102731.91
2023-01-27T00:03:03.151Z,102726.59
2023-01-27T00:05:29.795Z,102726.88
2023-01-27T00:07:58.855Z,102722.31
2023-01-27T00:10:26.791Z,102731.19
2023-01-27T00:13:12.383Z,102719.91
2023-01-27T00:15:39.063Z,102725.91
2023-01-27T00:18:05.901Z,102726.19
2023-01-27T00:20:51.415Z,102715.50
2023-01-27T00:23:38.913Z,102720.38
2023-01-27T00:26:11.378Z,102717.16
2023-01-27T00:28:40.352Z,102719.91
2023-01-27T00:31:28.502Z,102726.41
2023-01-27T00:33:57.869Z,102725.63
2023-01-27T00:36:24.438Z,102726.41
2023-01-27T00:38:50.927Z,102733.19
2023-01-27T00:41:19.770Z,102736.16
2023-01-27T00:43:47.600Z,102729.38
2023-01-27T00:46:15.421Z,102735.78
2023-01-27T00:48:42.035Z,102730.13
2023-01-27T00:51:08.796Z,102741.47
2023-01-27T00:53:36.085Z,102728.00
2023-01-27T00:56:02.721Z,102741.41
2023-01-27T00:58:30.406Z,102747.09
2023-01-27T01:01:00.069Z,102740.91
2023-01-27T01:03:31.522Z,102730.91
2023-01-27T01:05:59.493Z,102744.69
2023-01-27T01:08:26.674Z,102739.09
2023-01-27T01:10:53.429Z,102739.66
2023-01-27T01:13:21.644Z,102743.16
2023-01-27T01:15:48.513Z,102748.47
2023-01-27T01:18:16.465Z,102751.16
2023-01-27T01:20:45.717Z,102749.78
2023-01-27T01:23:13.770Z,102755.69
2023-01-27T01:25:41.606Z,102751.16
2023-01-27T01:28:09.966Z,102754.16
2023-01-27T01:30:37.805Z,102753.88
2023-01-27T01:33:04.639Z,102755.75
2023-01-27T01:35:31.408Z,102761.34
2023-01-27T01:37:58.183Z,102757.88
2023-01-27T01:40:25.861Z,102760.03
2023-01-27T01:42:54.904Z,102751.97
2023-01-27T01:45:31.474Z,102759.84
2023-01-27T01:48:05.764Z,102761.94
2023-01-27T01:50:33.729Z,102762.75
2023-01-27T01:53:01.949Z,102763.34
2023-01-27T01:55:29.862Z,102764.72
2023-01-27T01:57:56.526Z,102764.13
2023-01-27T02:00:23.152Z,102760.84
2023-01-27T02:02:51.497Z,102768.13
2023-01-27T02:05:24.476Z,102755.44
2023-01-27T02:08:05.346Z,102762.75
2023-01-27T02:10:34.712Z,102764.91
2023-01-27T02:13:01.249Z,102771.63
2023-01-27T02:15:30.497Z,102765.72
2023-01-27T02:17:58.981Z,102774.38
2023-01-27T02:20:36.459Z,102766.31
2023-01-27T02:23:16.915Z,102767.69
2023-01-27T02:25:51.169Z,102778.47
2023-01-27T02:28:17.748Z,102774.75
2023-01-27T02:30:44.322Z,102772.06
2023-01-27T02:33:13.534Z,102773.97
2023-01-27T02:35:51.861Z,102767.81
2023-01-27T02:38:19.808Z,102782.16
2023-01-27T02:40:50.130Z,102778.16
2023-01-27T02:43:16.626Z,102778.94
2023-01-27T02:45:45.421Z,102780.56
2023-01-27T02:48:13.988Z,102785.69
2023-01-27T02:50:40.542Z,102783.28
2023-01-27T02:53:07.403Z,102790.03
2023-01-27T02:55:33.965Z,102791.63
2023-01-27T02:58:00.528Z,102793.81
2023-01-27T03:00:27.043Z,102798.69
2023-01-27T03:02:53.571Z,102805.69
2023-01-27T03:05:20.057Z,102796.56
2023-01-27T03:07:46.662Z,102793.88
2023-01-27T03:10:13.176Z,102804.38
2023-01-27T03:12:40.842Z,102794.91
2023-01-27T03:15:27.072Z,102811.63
2023-01-27T03:18:12.718Z,102802.53
2023-01-27T03:20:41.593Z,102811.06
2023-01-27T03:23:08.635Z,102809.97
2023-01-27T03:25:36.792Z,102797.88
2023-01-27T03:28:03.546Z,102799.84
2023-01-27T03:30:30.171Z,102813.31
2023-01-27T03:32:59.121Z,102811.97
2023-01-27T03:35:34.096Z,102818.19
2023-01-27T03:38:20.221Z,102811.41
2023-01-27T03:41:05.436Z,102821.88
2023-01-27T03:43:50.380Z,102803.28
2023-01-27T03:46:18.568Z,102818.34
2023-01-27T03:48:56.096Z,102815.94
2023-01-27T03:51:24.575Z,102814.03
2023-01-27T03:53:51.555Z,102813.25
2023-01-27T03:56:19.286Z,102816.72
2023-01-27T03:58:46.070Z,102814.56
2023-01-27T04:01:17.391Z,102815.06
2023-01-27T04:04:02.481Z,102818.28
2023-01-27T04:06:50.668Z,102814.47
2023-01-27T04:09:21.635Z,102814.78
2023-01-27T04:11:55.280Z,102822.56
2023-01-27T04:14:32.453Z,102827.66
2023-01-27T04:17:03.819Z,102829.56
2023-01-27T04:19:30.962Z,102834.97
2023-01-27T04:21:58.610Z,102832.25
2023-01-27T04:24:25.918Z,102826.56
2023-01-27T04:26:57.215Z,102826.56
2023-01-27T04:29:26.573Z,102840.56
2023-01-27T04:31:53.818Z,102838.97
2023-01-27T04:34:20.696Z,102837.06
2023-01-27T04:36:47.980Z,102838.44
2023-01-27T04:39:16.386Z,102853.50
2023-01-27T04:41:44.030Z,102843.56
2023-01-27T04:44:11.178Z,102851.91
2023-01-27T04:46:38.368Z,102847.03
2023-01-27T04:49:05.770Z,102844.63
2023-01-27T04:51:34.120Z,102844.63
2023-01-27T04:54:01.470Z,102845.72
2023-01-27T04:56:31.747Z,102848.44
2023-01-27T04:59:01.200Z,102844.63
2023-01-27T05:01:28.428Z,102844.06
2023-01-27T05:03:55.522Z,102845.94
2023-01-27T05:06:22.873Z,102846.75
2023-01-27T05:08:49.818Z,102848.13
2023-01-27T05:11:17.309Z,102850.81
2023-01-27T05:13:44.245Z,102848.44
2023-01-27T05:16:19.316Z,102848.13
2023-01-27T05:18:48.781Z,102848.63
2023-01-27T05:21:18.771Z,102855.63
2023-01-27T05:23:45.653Z,102854.84
2023-01-27T05:26:14.566Z,102860.75
2023-01-27T05:28:43.628Z,102872.00
2023-01-27T05:31:14.768Z,102871.72
2023-01-27T05:33:42.676Z,102875.53
2023-01-27T05:36:13.086Z,102863.66
2023-01-27T05:38:40.200Z,102871.22
2023-01-27T05:41:08.486Z,102879.81
2023-01-27T05:43:38.208Z,102873.34
2023-01-27T05:46:14.520Z,102874.44
2023-01-27T05:48:44.372Z,102873.13
2023-01-27T05:51:14.710Z,102879.59
2023-01-27T05:53:42.682Z,102880.41
2023-01-27T05:56:10.826Z,102879.59
2023-01-27T05:58:38.932Z,102889.00
2023-01-27T06:01:10.637Z,102897.38
2023-01-27T06:03:38.699Z,102897.09
2023-01-27T06:06:06.755Z,102902.16
2023-01-27T06:08:33.613Z,102898.16
2023-01-27T06:11:00.540Z,102892.50
2023-01-27T06:13:27.718Z,102901.16
2023-01-27T06:15:57.124Z,102900.84
2023-01-27T06:18:24.226Z,102902.47
2023-01-27T06:20:51.953Z,102907.84
2023-01-27T06:23:18.797Z,102910.84
2023-01-27T06:25:47.632Z,102916.22
2023-01-27T06:28:27.159Z,102915.19
2023-01-27T06:30:56.703Z,102917.59
2023-01-27T06:33:23.764Z,102920.28
2023-01-27T06:35:50.567Z,102940.75
2023-01-27T06:38:17.239Z,102936.47
2023-01-27T06:40:44.350Z,102940.22
2023-01-27T06:43:14.597Z,102939.69
2023-01-27T06:45:41.444Z,102933.25
2023-01-27T06:48:08.832Z,102938.09
2023-01-27T06:50:36.432Z,102927.59
2023-01-27T06:53:05.872Z,102930.09
2023-01-27T06:55:33.793Z,102934.66
2023-01-27T06:58:01.828Z,102936.53
2023-01-27T07:00:28.616Z,102936.53
2023-01-27T07:02:56.263Z,102936.03
2023-01-27T07:05:22.824Z,102933.06
2023-01-27T07:07:49.375Z,102934.38
2023-01-27T07:10:17.136Z,102933.59
2023-01-27T07:12:43.705Z,102935.50
2023-01-27T07:15:11.211Z,102936.59
2023-01-27T07:17:38.359Z,102932.28
2023-01-27T07:20:08.843Z,102923.94
2023-01-27T07:22:35.504Z,102933.91
2023-01-27T07:25:03.000Z,102936.34
2023-01-27T07:27:29.784Z,102930.44
2023-01-27T07:29:56.501Z,102940.38
2023-01-27T07:32:23.285Z,102938.78
2023-01-27T07:34:49.884Z,102944.69
2023-01-27T07:37:16.953Z,102942.28
2023-01-27T07:39:43.677Z,102948.19
2023-01-27T07:42:10.336Z,102950.59
2023-01-27T07:44:36.894Z,102953.28
2023-01-27T07:47:03.706Z,102951.66
2023-01-27T07:49:30.260Z,102955.19
2023-01-27T07:51:56.823Z,102961.09
2023-01-27T07:54:23.339Z,102953.50
2023-01-27T07:56:49.862Z,102956.50
2023-01-27T07:59:16.398Z,102956.84
2023-01-27T08:01:43.417Z,102959.28
2023-01-27T08:04:10.414Z,102962.56
2023-01-27T08:06:39.467Z,102967.16
2023-01-27T08:09:06.570Z,102967.47
2023-01-27T08:11:33.814Z,102966.94
2023-01-27T08:14:00.416Z,102962.94
2023-01-27T08:16:27.704Z,102968.59
2023-01-27T08:18:54.582Z,102968.59
2023-01-27T08:21:21.491Z,102967.81
2023-01-27T08:23:48.284Z,102967.50
2023-01-27T08:26:14.845Z,102973.94
2023-01-27T08:28:41.537Z,102972.22
2023-01-27T08:31:16.110Z,102970.56
2023-01-27T08:33:44.951Z,102973.28
2023-01-27T08:36:14.406Z,102970.56
2023-01-27T08:38:41.885Z,102959.59
2023-01-27T08:41:14.136Z,102967.16
2023-01-27T08:43:41.172Z,102966.31
2023-01-27T08:46:09.066Z,102972.53
2023-01-27T08:48:36.965Z,102962.56
2023-01-27T08:51:05.891Z,102975.25
2023-01-27T08:53:32.796Z,102972.56
2023-01-27T08:56:03.988Z,102971.75
2023-01-27T08:58:30.713Z,102981.47
2023-01-27T09:01:00.382Z,102992.19
2023-01-27T09:03:27.029Z,102985.41
2023-01-27T09:05:53.589Z,102994.81
2023-01-27T09:08:21.209Z,102995.91
2023-01-27T09:10:47.857Z,103002.38
2023-01-27T09:13:14.361Z,103015.50
2023-01-27T09:15:41.981Z,103004.47
2023-01-27T09:18:08.661Z,103001.78
2023-01-27T09:20:37.049Z,103000.41
2023-01-27T09:23:06.615Z,103010.91
2023-01-27T09:25:33.206Z,103010.59
2023-01-27T09:28:00.797Z,103020.56
2023-01-27T09:30:28.759Z,103027.06
2023-01-27T09:33:00.155Z,103025.22
2023-01-27T09:35:33.831Z,103026.06
2023-01-27T09:38:00.422Z,103036.25
2023-01-27T09:40:31.161Z,103027.06
2023-01-27T09:43:19.195Z,103021.94
2023-01-27T09:46:03.965Z,103033.50
2023-01-27T09:48:41.197Z,103032.34
2023-01-27T09:51:49.639Z,103032.13
2023-01-27T09:54:39.360Z,103042.25
2023-01-27T09:57:28.376Z,103034.16
2023-01-27T10:00:10.303Z,103037.59
2023-01-27T10:02:39.955Z,103038.34
2023-01-27T10:05:27.162Z,103046.09
2023-01-27T10:08:22.127Z,103038.22
2023-01-27T10:10:49.714Z,103032.56
2023-01-27T10:13:28.745Z,103036.34
2023-01-27T10:16:04.262Z,103032.56
2023-01-27T10:18:54.554Z,103039.53
2023-01-27T10:21:41.237Z,103039.00
2023-01-27T10:24:34.043Z,103044.09
2023-01-27T10:27:21.357Z,103039.00
2023-01-27T10:30:00.732Z,103048.16
2023-01-27T10:32:38.698Z,103044.38
2023-01-27T10:35:15.988Z,103048.16
2023-01-27T10:37:43.617Z,103042.72
2023-01-27T10:40:11.567Z,103056.94
2023-01-27T10:42:46.939Z,103049.38
2023-01-27T10:45:28.609Z,103045.34
2023-01-27T10:48:07.802Z,103053.69
2023-01-27T10:50:40.400Z,103053.19
2023-01-27T10:53:20.039Z,103060.44
2023-01-27T10:56:08.782Z,103063.94
2023-01-27T10:59:02.721Z,103055.03
2023-01-27T11:01:36.077Z,103047.81
2023-01-27T11:04:11.925Z,103041.91
2023-01-27T11:06:42.050Z,103038.34
2023-01-27T11:09:25.553Z,103035.66
2023-01-27T11:11:54.247Z,103038.06
2023-01-27T11:14:27.359Z,103039.16
2023-01-27T11:17:03.553Z,103033.72
2023-01-27T11:19:39.764Z,103036.94
2023-01-27T11:22:17.805Z,103035.09
2023-01-27T11:24:48.129Z,103034.50
2023-01-27T11:27:26.468Z,103035.59
2023-01-27T11:29:58.471Z,103032.13
2023-01-27T11:32:45.231Z,103029.13
2023-01-27T11:35:14.374Z,103032.59
2023-01-27T11:37:44.142Z,103037.25
2023-01-27T11:40:17.845Z,103030.22
2023-01-27T11:42:45.249Z,103023.44
2023-01-27T11:45:17.631Z,103023.44
2023-01-27T11:47:47.637Z,103019.19
2023-01-27T11:50:17.472Z,103014.59
2023-01-27T11:52:49.399Z,103009.44
2023-01-27T11:55:21.667Z,103007.00
2023-01-27T11:57:54.906Z,103008.56
2023-01-27T12:00:26.260Z,102992.63
2023-01-27T12:03:18.888Z,102998.19
2023-01-27T12:05:52.502Z,102999.72
2023-01-27T12:08:38.129Z,103006.38
2023-01-27T12:11:23.865Z,102995.28
2023-01-27T12:13:54.312Z,102998.78
2023-01-27T12:16:24.198Z,102993.09
2023-01-27T12:18:58.069Z,102988.72
2023-01-27T12:21:38.127Z,102989.25
2023-01-27T12:24:14.086Z,102985.31
2023-01-27T12:26:44.113Z,102985.59
2023-01-27T12:29:20.610Z,102982.63
2023-01-27T12:31:51.479Z,102988.72
2023-01-27T12:34:25.317Z,102977.13
2023-01-27T12:36:52.591Z,102969.19
2023-01-27T12:39:45.947Z,102975.16
2023-01-27T12:42:35.129Z,102974.81
2023-01-27T12:45:33.145Z,102971.81
2023-01-27T12:48:16.438Z,102969.47
2023-01-27T12:50:56.099Z,102979.41
2023-01-27T12:53:28.530Z,102965.69
2023-01-27T12:56:08.276Z,102966.84
2023-01-27T12:58:46.389Z,102970.56
2023-01-27T13:01:20.092Z,102970.28
2023-01-27T13:03:50.785Z,102965.97
2023-01-27T13:06:21.261Z,102969.19
2023-01-27T13:08:51.389Z,102965.16
2023-01-27T13:11:30.264Z,102966.56
2023-01-27T13:13:59.231Z,102961.41
2023-01-27T13:16:28.752Z,102963.22
2023-01-27T13:18:58.433Z,102958.34
2023-01-27T13:21:34.297Z,102966.13
2023-01-27T13:24:05.287Z,102968.59
2023-01-27T13:26:34.580Z,102968.91
2023-01-27T13:29:24.365Z,102968.59
2023-01-27T13:31:58.360Z,102964.28
2023-01-27T13:34:30.463Z,102968.97
2023-01-27T13:37:04.708Z,102961.69
2023-01-27T13:39:49.335Z,102976.19
2023-01-27T13:42:24.633Z,102971.88
2023-01-27T13:44:59.245Z,102960.28
2023-01-27T13:47:34.766Z,102974.38
2023-01-27T13:50:08.711Z,102976.03
2023-01-27T13:52:36.812Z,102970.91
2023-01-27T13:55:03.447Z,102974.94
2023-01-27T13:57:42.490Z,102980.41
2023-01-27T14:00:21.422Z,102976.63
2023-01-27T14:03:07.612Z,102970.34
2023-01-27T14:05:35.115Z,102972.75
2023-01-27T14:08:15.700Z,102973.84
2023-01-27T14:11:08.543Z,102980.56
2023-01-27T14:13:50.576Z,102990.31
2023-01-27T14:16:26.531Z,102990.66
2023-01-27T14:19:03.550Z,102980.47
2023-01-27T14:21:42.669Z,102989.06
2023-01-27T14:24:21.302Z,102993.16
2023-01-27T14:27:01.802Z,102990.28
2023-01-27T14:29:34.208Z,102987.94
2023-01-27T14:32:18.611Z,102997.69
2023-01-27T14:34:56.515Z,103003.38
2023-01-27T14:37:24.000Z,102999.00
2023-01-27T14:40:07.529Z,102994.13
2023-01-27T14:42:50.489Z,102995.22
2023-01-27T14:45:30.574Z,103002.47
2023-01-27T14:48:03.383Z,102991.69
2023-01-27T14:50:38.491Z,103010.91
2023-01-27T14:53:06.002Z,103008.19
2023-01-27T14:56:11.681Z,103011.44
2023-01-27T14:58:53.911Z,103013.00
2023-01-27T15:01:32.341Z,103008.94
2023-01-27T15:04:08.020Z,103014.56
2023-01-27T15:06:34.500Z,103014.06
2023-01-27T15:09:21.244Z,103010.59
2023-01-27T15:11:58.410Z,103016.28
2023-01-27T15:14:58.737Z,103020.06
2023-01-27T15:17:40.614Z,103025.97
2023-01-27T15:20:28.366Z,103034.06
2023-01-27T15:23:22.387Z,103033.81
2023-01-27T15:25:54.436Z,103040.03
2023-01-27T15:28:27.777Z,103035.72
2023-01-27T15:31:14.262Z,103042.41
2023-01-27T15:33:51.322Z,103035.44
2023-01-27T15:36:26.956Z,103043.00
2023-01-27T15:39:08.774Z,103035.72
2023-01-27T15:41:37.338Z,103030.09
2023-01-27T15:44:25.805Z,103043.06
2023-01-27T15:46:56.088Z,103043.63
2023-01-27T15:49:27.128Z,103038.22
2023-01-27T15:51:56.779Z,103042.53
2023-01-27T15:54:27.745Z,103044.94
2023-01-27T15:56:56.654Z,103042.25
2023-01-27T15:59:30.492Z,103039.25
2023-01-27T16:02:10.195Z,103039.53
2023-01-27T16:04:37.016Z,103039.53
2023-01-27T16:07:05.633Z,103032.56
2023-01-27T16:09:43.313Z,103037.44
2023-01-27T16:12:27.091Z,103040.19
2023-01-27T16:15:00.596Z,103035.31
2023-01-27T16:17:33.856Z,103039.09
2023-01-27T16:20:20.971Z,103031.56
2023-01-27T16:22:57.756Z,103027.84
2023-01-27T16:25:34.396Z,103044.88
2023-01-27T16:28:06.849Z,103045.38
2023-01-27T16:30:42.484Z,103048.59
2023-01-27T16:33:20.468Z,103055.88
2023-01-27T16:35:53.992Z,103063.16
2023-01-27T16:38:27.182Z,103062.59
2023-01-27T16:41:02.855Z,103061.28
2023-01-27T16:43:33.968Z,103072.34
2023-01-27T16:46:02.412Z,103073.13
2023-01-27T16:48:44.383Z,103076.94
2023-01-27T16:51:18.813Z,103073.94
2023-01-27T16:53:49.143Z,103085.28
2023-01-27T16:56:23.784Z,103077.25
2023-01-27T16:58:51.481Z,103088.84
2023-01-27T17:01:23.194Z,103079.09
2023-01-27T17:03:52.314Z,103086.59
2023-01-27T17:06:19.536Z,103086.88
2023-01-27T17:08:49.085Z,103089.56
2023-01-27T17:11:19.263Z,103093.09
2023-01-27T17:13:50.086Z,103093.88
2023-01-27T17:16:21.971Z,103098.47
2023-01-27T17:18:52.808Z,103105.75
2023-01-27T17:21:31.906Z,103099.81
2023-01-27T17:24:04.330Z,103102.53
2023-01-27T17:26:31.395Z,103104.72
2023-01-27T17:28:58.272Z,103107.41
2023-01-27T17:31:25.689Z,103111.97
2023-01-27T17:34:01.195Z,103116.56
2023-01-27T17:36:30.087Z,103113.34
2023-01-27T17:38:57.868Z,103109.59
2023-01-27T17:41:28.525Z,103108.28
2023-01-27T17:44:03.398Z,103114.44
2023-01-27T17:46:32.979Z,103116.56
2023-01-27T17:49:05.279Z,103121.97
2023-01-27T17:51:39.921Z,103125.19
2023-01-27T17:54:21.396Z,103125.69
2023-01-27T17:56:51.500Z,103133.78
2023-01-27T17:59:20.896Z,103134.63
2023-01-27T18:01:50.756Z,103126.63
2023-01-27T18:04:17.975Z,103142.00
2023-01-27T18:06:45.946Z,103139.81
2023-01-27T18:09:24.009Z,103144.69
2023-01-27T18:11:53.798Z,103145.72
2023-01-27T18:14:20.827Z,103151.38
2023-01-27T18:17:00.951Z,103148.16
2023-01-27T18:19:29.419Z,103155.41
2023-01-27T18:22:12.344Z,103152.50
2023-01-27T18:24:40.630Z,103157.09
2023-01-27T18:27:30.108Z,103151.44
2023-01-27T18:30:02.680Z,103154.69
2023-01-27T18:32:38.691Z,103155.50
2023-01-27T18:35:24.948Z,103159.00
2023-01-27T18:38:00.037Z,103155.78
2023-01-27T18:40:29.085Z,103155.50
2023-01-27T18:42:56.834Z,103164.91
2023-01-27T18:45:24.389Z,103160.09
2023-01-27T18:47:51.383Z,103163.84
2023-01-27T18:50:20.710Z,103178.41
2023-01-27T18:52:48.767Z,103177.06
2023-01-27T18:55:26.988Z,103178.69
2023-01-27T18:57:55.937Z,103178.16
2023-01-27T19:00:25.481Z,103181.38
2023-01-27T19:02:56.307Z,103180.84
2023-01-27T19:05:27.276Z,103181.38
2023-01-27T19:07:55.031Z,103181.66
2023-01-27T19:10:25.862Z,103177.38
2023-01-27T19:12:54.108Z,103177.38
2023-01-27T19:15:28.688Z,103170.66
2023-01-27T19:17:57.048Z,103167.38
2023-01-27T19:20:27.878Z,103173.56
2023-01-27T19:22:55.893Z,103168.97
2023-01-27T19:25:24.651Z,103171.13
2023-01-27T19:27:55.759Z,103174.09
2023-01-27T19:30:26.971Z,103177.09
2023-01-27T19:32:55.283Z,103181.69
2023-01-27T19:35:23.969Z,103180.06
2023-01-27T19:37:51.883Z,103176.31
2023-01-27T19:40:20.396Z,103181.94
2023-01-27T19:42:48.098Z,103182.75
2023-01-27T19:45:16.622Z,103188.16
2023-01-27T19:47:47.051Z,103191.19
2023-01-27T19:50:24.177Z,103193.34
2023-01-27T19:52:51.185Z,103195.19
2023-01-27T19:55:19.015Z,103199.75
2023-01-27T19:57:45.621Z,103198.97
2023-01-27T20:00:22.638Z,103180.41
2023-01-27T20:02:49.437Z,103187.69
2023-01-27T20:05:16.732Z,103195.78
2023-01-27T20:07:44.675Z,103188.50
2023-01-27T20:10:16.573Z,103182.31
2023-01-27T20:12:43.615Z,103184.19
2023-01-27T20:15:17.279Z,103186.38
2023-01-27T20:17:45.183Z,103180.72
2023-01-27T20:20:14.062Z,103190.94
2023-01-27T20:22:41.758Z,103185.03
2023-01-27T20:25:13.194Z,103188.00
2023-01-27T20:27:40.538Z,103189.91
2023-01-27T20:30:07.865Z,103192.59
2023-01-27T20:32:35.701Z,103190.97
2023-01-27T20:35:03.199Z,103188.56
2023-01-27T20:37:29.828Z,103190.44
2023-01-27T20:39:56.515Z,103187.19
2023-01-27T20:42:22.996Z,103182.34
2023-01-27T20:44:49.614Z,103189.63
2023-01-27T20:47:17.075Z,103189.34
2023-01-27T20:49:43.810Z,103187.19
2023-01-27T20:52:10.445Z,103181.03
2023-01-27T20:54:36.939Z,103184.25
2023-01-27T20:57:07.437Z,103189.34
2023-01-27T20:59:33.936Z,103189.13
2023-01-27T21:02:00.508Z,103186.44
2023-01-27T21:04:28.272Z,103194.25
2023-01-27T21:06:54.872Z,103199.34
2023-01-27T21:09:22.282Z,103197.97
2023-01-27T21:11:48.828Z,103190.44
2023-01-27T21:14:16.266Z,103196.38
2023-01-27T21:16:42.817Z,103194.78
2023-01-27T21:19:09.844Z,103188.31
2023-01-27T21:21:36.344Z,103193.41
2023-01-27T21:24:03.155Z,103185.63
2023-01-27T21:26:30.027Z,103179.16
2023-01-27T21:28:57.206Z,103179.97
2023-01-27T21:31:24.489Z,103178.63
2023-01-27T21:33:51.111Z,103171.88
2023-01-27T21:36:18.853Z,103178.06
2023-01-27T21:38:46.422Z,103173.22
2023-01-27T21:41:35.180Z,103168.66
2023-01-27T21:44:22.078Z,103171.34
2023-01-27T21:46:48.677Z,103164.63
2023-01-27T21:49:15.644Z,103161.94
2023-01-27T21:51:42.561Z,103161.41
2023-01-27T21:54:10.162Z,103156.31
2023-01-27T21:56:36.766Z,103156.81
2023-01-27T21:59:03.410Z,103163.81
2023-01-27T22:01:31.794Z,103153.88
2023-01-27T22:03:59.386Z,103151.44
2023-01-27T22:06:26.011Z,103153.59
2023-01-27T22:08:52.735Z,103149.84
2023-01-27T22:11:19.855Z,103158.47
2023-01-27T22:13:46.666Z,103160.09
2023-01-27T22:16:15.760Z,103156.06
2023-01-27T22:18:42.907Z,103159.56
2023-01-27T22:21:09.707Z,103164.41
2023-01-27T22:23:37.457Z,103157.94
2023-01-27T22:26:08.256Z,103157.94
2023-01-27T22:28:35.992Z,103152.00
2023-01-27T22:31:02.903Z,103162.25
2023-01-27T22:33:29.836Z,103154.47
2023-01-27T22:36:15.174Z,103152.56
2023-01-27T22:38:41.859Z,103153.16
2023-01-27T22:41:08.426Z,103143.97
2023-01-27T22:43:35.891Z,103140.19
2023-01-27T22:46:04.075Z,103135.59
2023-01-27T22:48:30.774Z,103141.78
2023-01-27T22:51:02.203Z,103135.03
2023-01-27T22:53:28.832Z,103141.25
2023-01-27T22:55:57.899Z,103145.56
2023-01-27T22:58:25.023Z,103139.38
2023-01-27T23:00:52.083Z,103138.31
2023-01-27T23:03:18.772Z,103144.78
2023-01-27T23:05:45.491Z,103147.75
2023-01-27T23:08:12.246Z,103144.28
2023-01-27T23:10:38.833Z,103148.06
2023-01-27T23:13:05.713Z,103155.03
2023-01-27T23:15:32.272Z,103153.72
2023-01-27T23:17:58.924Z,103158.81
2023-01-27T23:20:26.233Z,103164.50
2023-01-27T23:22:52.857Z,103164.50
2023-01-27T23:25:20.379Z,103164.22
2023-01-27T23:27:46.911Z,103165.56
2023-01-27T23:30:13.900Z,103150.78
2023-01-27T23:32:40.523Z,103153.75
2023-01-27T23:35:08.384Z,103149.97
2023-01-27T23:37:35.069Z,103150.78
2023-01-27T23:40:01.731Z,103149.16
2023-01-27T23:42:28.339Z,103162.66
2023-01-27T23:44:54.907Z,103155.13
2023-01-27T23:47:22.434Z,103158.06
2023-01-27T23:49:49.517Z,103160.47
2023-01-27T23:52:16.225Z,103151.03
2023-01-27T23:54:42.803Z,103151.84
2023-01-27T23:57:10.371Z,103157.78
2023-01-27T23:59:37.198Z,103149.16
